createdAt,value
2019-05-21T05:17:48.273Z,960.13
2019-05-21T05:18:48.274Z,960.18
2019-05-21T05:23:48.280Z,960.13
2019-05-21T05:24:48.291Z,960.14
2019-05-21T05:26:48.309Z,960.10
2019-05-21T05:27:48.326Z,960.09
2019-05-21T05:28:48.285Z,960.02
2019-05-21T05:29:48.293Z,960.07
2019-05-21T05:30:48.344Z,960.08
2019-05-21T05:31:48.317Z,960.12
2019-05-21T05:32:48.319Z,960.13
2019-05-21T05:33:48.296Z,960.18
2019-05-21T05:34:48.295Z,960.13
2019-05-21T05:35:48.297Z,960.16
2019-05-21T05:36:48.294Z,960.13
2019-05-21T05:37:49.137Z,960.12
2019-05-21T05:38:48.307Z,960.11
2019-05-21T05:39:48.305Z,960.10
2019-05-21T05:40:48.308Z,960.11
2019-05-21T05:41:48.341Z,960.15
2019-05-21T05:42:48.314Z,960.11
2019-05-21T05:43:48.311Z,960.12
2019-05-21T05:44:48.310Z,960.17
2019-05-21T05:45:48.325Z,960.11
2019-05-21T05:46:48.344Z,960.16
2019-05-21T05:47:48.311Z,960.16
2019-05-21T05:48:48.325Z,960.18
2019-05-21T05:49:48.340Z,960.21
2019-05-21T05:50:48.327Z,960.20
2019-05-21T05:51:48.356Z,960.22
2019-05-21T05:52:48.340Z,960.27
2019-05-21T05:53:48.324Z,960.25
2019-05-21T05:54:48.333Z,960.29
2019-05-21T05:55:48.339Z,960.28
2019-05-21T05:56:48.360Z,960.30
2019-05-21T05:57:48.333Z,960.31
2019-05-21T05:58:48.346Z,960.36
2019-05-21T05:59:48.355Z,960.32
2019-05-21T06:01:48.385Z,960.31
2019-05-21T06:02:48.369Z,960.36
2019-05-21T06:03:48.342Z,960.31
2019-05-21T06:04:48.374Z,960.37
2019-05-21T06:05:48.346Z,960.29
2019-05-21T06:06:48.375Z,960.33
2019-05-21T06:07:59.269Z,960.34
2019-05-21T06:08:48.358Z,960.35
2019-05-21T06:09:48.380Z,960.41
2019-05-21T06:10:48.358Z,960.39
2019-05-21T06:11:48.392Z,960.40
2019-05-21T06:12:48.367Z,960.38
2019-05-21T06:13:48.396Z,960.45
2019-05-21T06:14:48.364Z,960.49
2019-05-21T06:15:48.369Z,960.48
2019-05-21T06:16:48.395Z,960.59
2019-05-21T06:17:48.402Z,960.61
2019-05-21T06:18:48.383Z,960.66
2019-05-21T06:21:48.383Z,960.68
2019-05-21T06:22:48.409Z,960.67
2019-05-21T06:24:48.392Z,960.82
2019-05-21T06:25:48.393Z,960.76
2019-05-21T06:26:48.403Z,960.79
2019-05-21T06:27:48.449Z,960.75
2019-05-21T06:28:48.401Z,960.77
2019-05-21T06:29:48.405Z,960.61
2019-05-21T06:38:48.432Z,960.79
2019-05-21T06:39:48.438Z,960.76
2019-05-21T06:40:48.445Z,960.84
2019-05-21T06:41:48.469Z,960.84
2019-05-21T06:42:48.443Z,960.90
2019-05-21T06:45:48.458Z,960.88
2019-05-21T06:46:48.486Z,960.97
2019-05-21T06:47:48.465Z,960.98
2019-05-21T06:48:48.468Z,960.90
2019-05-21T06:49:48.469Z,960.86
2019-05-21T06:50:48.478Z,960.90
2019-05-21T06:51:48.571Z,960.91
2019-05-21T06:52:48.493Z,961.01
2019-05-21T06:53:48.487Z,960.99
2019-05-21T06:54:48.486Z,961.00
2019-05-21T06:55:48.498Z,961.06
2019-05-21T06:56:48.526Z,961.14
2019-05-21T06:57:48.505Z,961.10
2019-05-21T06:58:48.527Z,961.12
2019-05-21T06:59:48.516Z,961.11
2019-05-21T07:00:48.521Z,961.22
2019-05-21T07:01:48.546Z,961.17
2019-05-21T07:02:48.522Z,961.11
2019-05-21T07:03:48.533Z,961.29
2019-05-21T07:04:48.525Z,961.13
2019-05-21T07:05:58.516Z,961.29
2019-05-21T07:06:48.561Z,961.37
2019-05-21T07:07:48.542Z,961.22
2019-05-21T07:08:48.541Z,961.34
2019-05-21T07:09:48.552Z,961.41
2019-05-21T07:10:48.554Z,961.27
2019-05-21T07:11:48.580Z,961.31
2019-05-21T07:12:48.557Z,961.24
2019-05-21T07:13:48.565Z,961.34
2019-05-21T07:14:48.576Z,961.40
2019-05-21T07:15:48.577Z,961.30
2019-05-21T07:16:48.626Z,961.40
2019-05-21T07:17:48.585Z,961.49
2019-05-21T07:18:48.586Z,961.48
2019-05-21T07:19:48.594Z,961.45
2019-05-21T07:20:48.605Z,961.58
2019-05-21T07:21:48.624Z,961.54
2019-05-21T07:22:48.665Z,961.58
2019-05-21T07:23:48.624Z,961.54
2019-05-21T07:24:48.650Z,961.58
2019-05-21T07:25:48.621Z,961.59
2019-05-21T07:26:48.655Z,961.65
2019-05-21T07:27:48.625Z,961.80
2019-05-21T07:28:48.629Z,961.77
2019-05-21T07:29:48.637Z,961.82
2019-05-21T07:30:48.636Z,961.76
2019-05-21T07:31:48.669Z,961.83
2019-05-21T07:32:48.705Z,961.93
2019-05-21T07:33:48.648Z,961.95
2019-05-21T07:34:48.660Z,962.03
2019-05-21T07:35:48.664Z,961.99
2019-05-21T07:36:48.690Z,961.99
2019-05-21T07:37:48.692Z,962.13
2019-05-21T07:38:53.454Z,961.95
2019-05-21T07:39:48.730Z,961.99
2019-05-21T07:40:48.683Z,961.99
2019-05-21T07:41:48.716Z,961.98
2019-05-21T07:42:48.694Z,961.93
2019-05-21T07:43:48.701Z,961.85
2019-05-21T07:44:48.716Z,961.90
2019-05-21T07:45:48.702Z,961.99
2019-05-21T07:46:48.753Z,961.93
2019-05-21T07:47:48.730Z,961.96
2019-05-21T07:48:48.725Z,962.13
2019-05-21T07:49:48.726Z,962.11
2019-05-21T07:50:48.759Z,962.24
2019-05-21T07:51:48.739Z,962.16
2019-05-21T07:52:48.739Z,962.15
2019-05-21T07:53:48.752Z,962.33
2019-05-21T07:54:48.751Z,962.27
2019-05-21T07:55:48.783Z,962.23
2019-05-21T07:56:48.759Z,962.30
2019-05-21T07:57:48.759Z,962.42
2019-05-21T07:58:48.765Z,962.42
2019-05-21T07:59:48.778Z,962.29
2019-05-21T08:00:48.802Z,962.11
2019-05-21T08:01:48.784Z,962.25
2019-05-21T08:02:48.800Z,962.15
2019-05-21T08:03:48.789Z,962.17
2019-05-21T08:04:48.798Z,962.26
2019-05-21T08:05:48.830Z,962.44
2019-05-21T08:06:48.805Z,962.27
2019-05-21T08:07:48.813Z,962.42
2019-05-21T08:08:48.818Z,962.56
2019-05-21T08:09:48.903Z,962.57
2019-05-21T08:10:48.826Z,962.51
2019-05-21T08:11:48.863Z,962.30
2019-05-21T08:12:48.861Z,962.71
2019-05-21T08:13:48.839Z,962.71
2019-05-21T08:14:48.847Z,962.75
2019-05-21T08:15:48.851Z,962.58
2019-05-21T08:16:48.918Z,962.56
2019-05-21T08:17:48.857Z,962.76
2019-05-21T08:18:48.863Z,962.54
2019-05-21T08:19:48.880Z,962.53
2019-05-21T08:20:48.882Z,962.50
2019-05-21T08:21:48.914Z,962.70
2019-05-21T08:22:48.890Z,962.94
2019-05-21T08:23:48.886Z,962.75
2019-05-21T08:24:48.901Z,962.88
2019-05-21T08:25:48.897Z,962.71
2019-05-21T08:26:48.951Z,962.56
2019-05-21T08:27:48.910Z,962.54
2019-05-21T08:28:48.917Z,962.41
2019-05-21T08:29:48.922Z,962.48
2019-05-21T08:30:48.928Z,962.44
2019-05-21T08:31:48.958Z,962.42
2019-05-21T08:32:48.942Z,962.53
2019-05-21T08:33:48.967Z,962.92
2019-05-21T08:34:48.953Z,962.81
2019-05-21T08:35:48.955Z,962.90
2019-05-21T08:36:48.995Z,963.00
2019-05-21T08:37:48.974Z,963.07
2019-05-21T08:38:48.970Z,962.91
2019-05-21T08:39:48.995Z,962.99
2019-05-21T08:40:48.989Z,963.06
2019-05-21T08:41:49.012Z,963.18
2019-05-21T08:42:48.995Z,963.21
2019-05-21T08:43:48.996Z,963.01
2019-05-21T08:44:49.001Z,962.89
2019-05-21T08:45:49.013Z,962.80
2019-05-21T08:46:49.046Z,962.84
2019-05-21T08:47:49.028Z,962.80
2019-05-21T08:48:49.025Z,962.78
2019-05-21T08:49:49.034Z,962.85
2019-05-21T08:50:49.040Z,962.79
2019-05-21T08:51:49.067Z,962.82
2019-05-21T08:52:49.056Z,962.78
2019-05-21T08:53:49.065Z,962.81
2019-05-21T08:54:49.058Z,962.78
2019-05-21T08:55:49.061Z,962.81
2019-05-21T08:56:49.099Z,962.76
2019-05-21T08:58:05.550Z,962.75
2019-05-21T08:58:49.098Z,962.70
2019-05-21T08:59:49.084Z,962.71
2019-05-21T09:00:49.090Z,962.69
2019-05-21T09:01:49.120Z,962.83
2019-05-21T09:02:49.096Z,962.92
2019-05-21T09:03:49.103Z,962.88
2019-05-21T09:04:49.149Z,962.86
2019-05-21T09:05:49.116Z,962.92
2019-05-21T09:06:49.147Z,962.91
2019-05-21T09:07:53.431Z,962.92
2019-05-21T09:08:49.120Z,962.86
2019-05-21T09:09:51.656Z,963.03
2019-05-21T09:10:49.126Z,963.05
2019-05-21T09:11:49.154Z,963.04
2019-05-21T09:12:49.139Z,963.05
2019-05-21T09:13:49.138Z,963.05
2019-05-21T09:14:49.150Z,963.14
2019-05-21T09:15:49.147Z,963.06
2019-05-21T09:16:49.192Z,963.19
2019-05-21T09:17:49.153Z,963.30
2019-05-21T09:18:49.158Z,963.27
2019-05-21T09:19:49.160Z,963.46
2019-05-21T09:20:49.197Z,963.34
2019-05-21T09:21:49.177Z,963.49
2019-05-21T09:22:49.202Z,963.47
2019-05-21T09:23:49.186Z,963.50
2019-05-21T09:24:49.193Z,963.53
2019-05-21T09:25:49.734Z,963.44
2019-05-21T09:26:49.192Z,963.52
2019-05-21T09:27:49.230Z,963.48
2019-05-21T09:28:49.205Z,963.68
2019-05-21T09:29:49.207Z,963.60
2019-05-21T09:30:49.804Z,963.62
2019-05-21T09:31:49.217Z,963.78
2019-05-21T09:32:49.244Z,963.69
2019-05-21T09:33:49.249Z,963.92
2019-05-21T09:34:49.593Z,963.94
2019-05-21T09:35:49.232Z,963.78
2019-05-21T09:36:49.276Z,963.94
2019-05-21T09:37:49.255Z,963.70
2019-05-21T09:38:49.254Z,963.79
2019-05-21T09:39:49.262Z,963.69
2019-05-21T09:40:49.300Z,963.93
2019-05-21T09:41:49.274Z,963.72
2019-05-21T09:42:49.301Z,963.68
2019-05-21T09:43:49.281Z,963.68
2019-05-21T09:44:49.314Z,963.83
2019-05-21T09:45:49.290Z,963.79
2019-05-21T09:46:49.303Z,963.72
2019-05-21T09:47:49.331Z,963.94
2019-05-21T09:48:49.313Z,964.02
2019-05-21T09:49:49.328Z,964.33
2019-05-21T09:50:50.437Z,964.46
2019-05-21T09:51:49.356Z,964.44
2019-05-21T09:52:49.390Z,965.03
2019-05-21T09:53:49.365Z,965.04
2019-05-21T09:54:49.361Z,965.18
2019-05-21T09:55:49.378Z,965.31
2019-05-21T09:56:49.375Z,965.26
2019-05-21T09:57:49.376Z,965.41
2019-05-21T09:58:49.439Z,965.48
2019-05-21T09:59:49.391Z,965.51
2019-05-21T10:00:49.405Z,965.40
2019-05-21T10:01:49.412Z,965.19
2019-05-21T10:02:49.445Z,965.48
2019-05-21T10:03:49.433Z,965.32
2019-05-21T10:04:49.451Z,965.19
2019-05-21T10:05:49.459Z,965.20
2019-05-21T10:06:49.466Z,965.45
2019-05-21T10:07:49.519Z,965.21
2019-05-21T10:08:49.487Z,965.24
2019-05-21T10:09:49.510Z,965.08
2019-05-21T10:10:49.526Z,965.15
2019-05-21T10:11:50.321Z,965.15
2019-05-21T10:12:49.567Z,965.44
2019-05-21T10:13:49.564Z,965.43
2019-05-21T10:14:49.577Z,965.23
2019-05-21T10:15:49.576Z,965.52
2019-05-21T10:16:49.586Z,965.38
2019-05-21T10:17:49.650Z,965.40
2019-05-21T10:18:49.620Z,965.53
2019-05-21T10:19:49.630Z,965.54
2019-05-21T10:20:49.633Z,965.60
2019-05-21T10:21:49.683Z,965.58
2019-05-21T10:22:49.669Z,965.57
2019-05-21T10:23:49.708Z,965.58
2019-05-21T10:24:49.695Z,965.59
2019-05-21T10:25:49.707Z,965.63
2019-05-21T10:26:49.727Z,965.68
2019-05-21T10:27:49.770Z,965.58
2019-05-21T10:28:49.742Z,965.56
2019-05-21T10:29:49.760Z,965.54
2019-05-21T10:30:49.778Z,965.46
2019-05-21T10:31:49.938Z,965.49
2019-05-21T10:32:49.808Z,965.40
2019-05-21T10:33:49.842Z,965.39
2019-05-21T10:34:49.835Z,965.47
2019-05-21T10:35:49.842Z,965.57
2019-05-21T10:36:49.860Z,965.43
2019-05-21T10:37:54.825Z,965.61
2019-05-21T10:38:49.915Z,965.65
2019-05-21T10:39:49.914Z,965.75
2019-05-21T10:40:49.919Z,965.78
2019-05-21T10:41:49.941Z,965.85
2019-05-21T10:42:49.982Z,965.83
2019-05-21T10:43:49.985Z,965.86
2019-05-21T10:44:49.970Z,965.72
2019-05-21T10:45:49.989Z,965.58
2019-05-21T10:46:50.023Z,965.52
2019-05-21T10:47:50.041Z,965.53
2019-05-21T10:48:50.060Z,965.49
2019-05-21T10:49:50.053Z,965.54
2019-05-21T10:50:50.834Z,965.56
2019-05-21T10:51:50.151Z,965.52
2019-05-21T10:52:50.117Z,965.42
2019-05-21T10:53:50.108Z,965.01
2019-05-21T10:54:50.122Z,965.04
2019-05-21T10:55:50.131Z,965.09
2019-05-21T10:56:50.140Z,965.16
2019-05-21T10:57:50.204Z,965.14
2019-05-21T10:58:50.171Z,965.04
2019-05-21T10:59:50.178Z,965.15
2019-05-21T11:00:50.191Z,965.27
2019-05-21T11:01:50.445Z,965.22
2019-05-21T11:02:50.399Z,965.31
2019-05-21T11:03:50.939Z,965.45
2019-05-21T11:04:50.381Z,965.53
2019-05-21T11:05:50.248Z,965.57
2019-05-21T11:06:51.061Z,965.63
2019-05-21T11:07:50.960Z,965.62
2019-05-21T11:08:50.957Z,965.69
2019-05-21T11:09:50.438Z,965.64
2019-05-21T11:10:51.603Z,965.58
2019-05-21T11:11:50.439Z,965.45
2019-05-21T11:12:50.388Z,965.33
2019-05-21T11:13:50.479Z,965.53
2019-05-21T11:14:51.203Z,965.44
2019-05-21T11:15:50.364Z,965.46
2019-05-21T11:16:50.372Z,965.65
2019-05-21T11:18:50.428Z,965.83
2019-05-21T11:19:50.423Z,965.72
2019-05-21T11:20:50.985Z,965.69
2019-05-21T11:21:50.429Z,965.72
2019-05-21T11:22:51.721Z,966.06
2019-05-21T11:23:50.473Z,965.93
2019-05-21T11:24:50.503Z,965.88
2019-05-21T11:25:50.468Z,965.87
2019-05-21T11:26:50.508Z,965.93
2019-05-21T11:27:50.746Z,965.92
2019-05-21T11:28:51.848Z,965.95
2019-05-21T11:29:50.517Z,965.92
2019-05-21T11:30:51.456Z,965.98
2019-05-21T11:31:56.922Z,965.93
2019-05-21T11:32:50.551Z,965.93
2019-05-21T11:33:50.624Z,966.03
2019-05-21T11:34:50.757Z,965.99
2019-05-21T11:35:50.594Z,966.18
2019-05-21T11:36:50.687Z,966.01
2019-05-21T11:37:50.617Z,966.02
2019-05-21T11:38:50.697Z,965.98
2019-05-21T11:39:50.736Z,965.92
2019-05-21T11:40:51.406Z,965.97
2019-05-21T11:41:51.787Z,965.93
2019-05-21T11:42:52.967Z,966.04
2019-05-21T11:43:50.779Z,966.00
2019-05-21T11:44:50.845Z,965.96
2019-05-21T11:45:50.836Z,965.98
2019-05-21T11:46:50.741Z,966.01
2019-05-21T11:47:53.998Z,966.12
2019-05-21T11:48:50.793Z,966.03
2019-05-21T11:49:50.772Z,966.17
2019-05-21T11:50:50.884Z,966.20
2019-05-21T11:51:50.806Z,966.11
2019-05-21T11:52:50.825Z,965.98
2019-05-21T11:53:50.889Z,966.03
2019-05-21T11:54:50.848Z,965.95
2019-05-21T11:55:50.875Z,965.95
2019-05-21T11:56:50.884Z,965.99
2019-05-21T11:57:51.852Z,966.25
2019-05-21T11:58:50.936Z,966.12
2019-05-21T11:59:50.927Z,966.25
2019-05-21T12:00:51.893Z,966.14
2019-05-21T12:01:50.971Z,966.20
2019-05-21T12:02:51.035Z,966.15
2019-05-21T12:03:51.010Z,966.14
2019-05-21T12:04:50.995Z,966.06
2019-05-21T12:05:51.017Z,966.03
2019-05-21T12:06:51.049Z,966.01
2019-05-21T12:07:51.065Z,966.01
2019-05-21T12:08:56.794Z,966.06
2019-05-21T12:09:51.071Z,965.99
2019-05-21T12:10:51.082Z,965.95
2019-05-21T12:11:51.117Z,966.03
2019-05-21T12:12:51.118Z,966.01
2019-05-21T12:13:51.158Z,966.02
2019-05-21T12:14:51.135Z,965.99
2019-05-21T12:15:51.853Z,966.04
2019-05-21T12:16:51.165Z,965.96
2019-05-21T12:17:51.179Z,966.01
2019-05-21T12:18:51.281Z,965.99
2019-05-21T12:19:51.289Z,966.03
2019-05-21T12:20:51.249Z,966.04
2019-05-21T12:21:51.229Z,966.04
2019-05-21T12:22:51.256Z,966.09
2019-05-21T12:23:51.288Z,966.34
2019-05-21T12:24:51.272Z,966.22
2019-05-21T12:25:53.248Z,966.31
2019-05-21T12:26:51.289Z,966.34
2019-05-21T12:27:51.304Z,966.36
2019-05-21T12:28:51.528Z,966.41
2019-05-21T12:29:51.333Z,966.41
2019-05-21T12:30:51.346Z,966.40
2019-05-21T12:31:51.889Z,966.42
2019-05-21T12:32:51.370Z,966.41
2019-05-21T12:33:51.456Z,966.40
2019-05-21T12:34:51.390Z,966.34
2019-05-21T12:35:51.465Z,966.40
2019-05-21T12:36:51.434Z,966.39
2019-05-21T12:37:51.440Z,966.47
2019-05-21T12:38:51.488Z,966.46
2019-05-21T12:39:51.479Z,966.46
2019-05-21T12:40:51.507Z,966.50
2019-05-21T12:41:51.507Z,966.28
2019-05-21T12:42:51.527Z,966.30
2019-05-21T12:43:51.645Z,966.40
2019-05-21T12:44:51.591Z,966.27
2019-05-21T12:45:52.368Z,966.27
2019-05-21T12:46:51.588Z,966.23
2019-05-21T12:47:51.604Z,966.23
2019-05-21T12:48:51.646Z,966.22
2019-05-21T12:49:51.630Z,966.19
2019-05-21T12:50:51.645Z,966.17
2019-05-21T12:51:51.658Z,966.13
2019-05-21T12:52:51.712Z,966.13
2019-05-21T12:53:51.717Z,966.12
2019-05-21T12:54:51.769Z,966.12
2019-05-21T12:55:51.737Z,966.11
2019-05-21T12:56:51.726Z,966.07
2019-05-21T12:57:51.747Z,966.14
2019-05-21T12:58:51.791Z,966.15
2019-05-21T12:59:52.370Z,966.19
2019-05-21T13:00:51.783Z,966.29
2019-05-21T13:01:51.833Z,966.46
2019-05-21T13:02:52.371Z,966.50
2019-05-21T13:03:55.297Z,966.52
2019-05-21T13:04:51.835Z,966.53
2019-05-21T13:05:51.855Z,966.58
2019-05-21T13:06:51.854Z,966.55
2019-05-21T13:07:51.866Z,966.46
2019-05-21T13:08:51.901Z,966.53
2019-05-21T13:09:51.895Z,966.60
2019-05-21T13:10:51.905Z,966.61
2019-05-21T13:11:51.916Z,966.65
2019-05-21T13:12:51.921Z,966.36
2019-05-21T13:13:51.974Z,966.35
2019-05-21T13:14:51.956Z,966.36
2019-05-21T13:15:51.968Z,966.37
2019-05-21T13:16:52.053Z,966.41
2019-05-21T13:17:52.015Z,966.41
2019-05-21T13:18:52.041Z,966.41
2019-05-21T13:19:52.027Z,966.42
2019-05-21T13:20:52.033Z,966.39
2019-05-21T13:21:52.061Z,966.43
2019-05-21T13:22:52.135Z,966.42
2019-05-21T13:23:52.102Z,966.42
2019-05-21T13:24:52.084Z,966.45
2019-05-21T13:25:52.113Z,966.42
2019-05-21T13:26:52.111Z,966.38
2019-05-21T13:27:52.122Z,966.38
2019-05-21T13:28:52.195Z,966.36
2019-05-21T13:29:52.163Z,966.43
2019-05-21T13:30:52.887Z,966.46
2019-05-21T13:31:52.172Z,966.42
2019-05-21T13:32:52.192Z,966.49
2019-05-21T13:33:52.219Z,966.45
2019-05-21T13:34:52.204Z,966.49
2019-05-21T13:35:52.209Z,966.49
2019-05-21T13:36:52.215Z,966.59
2019-05-21T13:37:52.231Z,966.50
2019-05-21T13:38:52.269Z,966.60
2019-05-21T13:39:52.250Z,966.58
2019-05-21T13:40:52.310Z,966.45
2019-05-21T13:41:52.273Z,966.48
2019-05-21T13:42:52.285Z,966.55
2019-05-21T13:43:52.325Z,966.68
2019-05-21T13:44:52.335Z,966.56
2019-05-21T13:45:52.320Z,966.75
2019-05-21T13:46:52.327Z,966.67
2019-05-21T13:47:52.334Z,966.70
2019-05-21T13:48:52.369Z,966.65
2019-05-21T13:49:52.353Z,966.66
2019-05-21T13:50:54.075Z,966.71
2019-05-21T13:51:52.376Z,966.57
2019-05-21T13:52:52.387Z,966.58
2019-05-21T13:53:52.425Z,966.53
2019-05-21T13:54:52.424Z,966.47
2019-05-21T13:55:52.418Z,966.47
2019-05-21T13:56:52.436Z,966.62
2019-05-21T13:57:53.401Z,966.68
2019-05-21T13:58:52.486Z,966.54
2019-05-21T13:59:52.466Z,966.57
2019-05-21T14:00:52.513Z,966.57
2019-05-21T14:01:52.517Z,966.57
2019-05-21T14:02:52.494Z,966.53
2019-05-21T14:03:52.509Z,966.53
2019-05-21T14:04:52.550Z,966.56
2019-05-21T14:05:52.561Z,966.60
2019-05-21T14:06:52.534Z,966.61
2019-05-21T14:07:52.549Z,966.70
2019-05-21T14:08:52.561Z,966.67
2019-05-21T14:10:12.730Z,966.75
2019-05-21T14:10:52.585Z,966.76
2019-05-21T14:11:52.588Z,966.74
2019-05-21T14:12:52.627Z,966.73
2019-05-21T14:13:52.613Z,966.73
2019-05-21T14:14:52.703Z,966.70
2019-05-21T14:15:52.627Z,966.72
2019-05-21T14:16:52.687Z,966.65
2019-05-21T14:17:52.653Z,966.66
2019-05-21T14:18:52.673Z,966.63
2019-05-21T14:19:52.671Z,966.60
2019-05-21T14:20:52.916Z,966.59
2019-05-21T14:21:52.691Z,966.58
2019-05-21T14:22:52.710Z,966.60
2019-05-21T14:23:52.720Z,966.61
2019-05-21T14:24:52.729Z,966.59
2019-05-21T14:25:52.761Z,966.56
2019-05-21T14:26:52.740Z,966.58
2019-05-21T14:27:52.755Z,966.59
2019-05-21T14:28:52.761Z,966.58
2019-05-21T14:29:52.771Z,966.62
2019-05-21T14:30:52.812Z,966.60
2019-05-21T14:31:52.795Z,966.59
2019-05-21T14:32:52.800Z,966.59
2019-05-21T14:33:52.802Z,966.57
2019-05-21T14:35:01.272Z,966.58
2019-05-21T14:35:52.848Z,966.62
2019-05-21T14:36:52.828Z,966.63
2019-05-21T14:37:52.852Z,966.57
2019-05-21T14:38:52.847Z,966.55
2019-05-21T14:39:53.420Z,966.62
2019-05-21T14:40:52.890Z,966.62
2019-05-21T14:41:52.866Z,966.62
2019-05-21T14:43:00.071Z,966.63
2019-05-21T14:43:52.884Z,966.63
2019-05-21T14:44:52.894Z,966.60
2019-05-21T14:45:52.935Z,966.59
2019-05-21T14:46:52.924Z,966.55
2019-05-21T14:47:52.917Z,966.63
2019-05-21T14:48:52.925Z,966.61
2019-05-21T14:49:52.925Z,966.63
2019-05-21T14:50:52.965Z,966.64
2019-05-21T14:51:52.938Z,966.64
2019-05-21T14:52:52.946Z,966.68
2019-05-21T14:53:52.953Z,966.69
2019-05-21T14:54:52.959Z,966.73
2019-05-21T14:55:53.017Z,966.70
2019-05-21T14:56:52.971Z,966.69
2019-05-21T14:57:52.979Z,966.72
2019-05-21T14:58:52.996Z,966.76
2019-05-21T14:59:53.138Z,966.72
2019-05-21T15:00:53.033Z,966.75
2019-05-21T15:01:53.048Z,966.75
2019-05-21T15:02:53.031Z,966.79
2019-05-21T15:03:53.065Z,966.77
2019-05-21T15:04:53.074Z,966.77
2019-05-21T15:05:53.029Z,966.77
2019-05-21T15:06:53.078Z,966.78
2019-05-21T15:07:53.048Z,966.72
2019-05-21T15:08:53.064Z,966.74
2019-05-21T15:09:53.677Z,966.78
2019-05-21T15:10:53.095Z,966.76
2019-05-21T15:11:53.094Z,966.75
2019-05-21T15:12:53.108Z,966.79
2019-05-21T15:13:53.107Z,966.77
2019-05-21T15:14:53.095Z,966.79
2019-05-21T15:15:53.099Z,966.84
2019-05-21T15:16:53.144Z,966.79
2019-05-21T15:17:53.125Z,966.71
2019-05-21T15:18:53.120Z,966.73
2019-05-21T15:19:53.132Z,966.72
2019-05-21T15:20:53.148Z,966.79
2019-05-21T15:21:53.184Z,966.78
2019-05-21T15:22:53.146Z,966.67
2019-05-21T15:23:53.157Z,966.75
2019-05-21T15:24:53.193Z,966.63
2019-05-21T15:25:53.174Z,966.65
2019-05-21T15:26:53.195Z,966.66
2019-05-21T15:27:53.174Z,966.62
2019-05-21T15:28:53.925Z,966.61
2019-05-21T15:29:53.190Z,966.60
2019-05-21T15:30:53.195Z,966.70
2019-05-21T15:31:53.223Z,966.68
2019-05-21T15:32:53.209Z,966.62
2019-05-21T15:33:53.927Z,966.62
2019-05-21T15:34:53.224Z,966.58
2019-05-21T15:35:53.225Z,966.56
2019-05-21T15:36:53.257Z,966.69
2019-05-21T15:37:53.241Z,966.59
2019-05-21T15:38:53.242Z,966.51
2019-05-21T15:39:53.240Z,966.60
2019-05-21T15:41:08.642Z,966.61
2019-05-21T15:41:53.286Z,966.68
2019-05-21T15:42:53.876Z,966.64
2019-05-21T15:43:53.265Z,966.71
2019-05-21T15:44:53.270Z,966.67
2019-05-21T15:45:53.271Z,966.67
2019-05-21T15:46:53.310Z,966.62
2019-05-21T15:47:53.282Z,966.71
2019-05-21T15:48:53.290Z,966.69
2019-05-21T15:49:53.285Z,966.70
2019-05-21T15:50:53.294Z,966.85
2019-05-21T15:51:53.330Z,966.84
2019-05-21T15:52:53.330Z,966.86
2019-05-21T15:53:53.417Z,966.83
2019-05-21T15:54:53.312Z,966.87
2019-05-21T15:55:53.319Z,966.88
2019-05-21T15:56:53.345Z,966.89
2019-05-21T15:57:53.332Z,966.95
2019-05-21T15:58:53.335Z,966.95
2019-05-21T15:59:53.358Z,966.87
2019-05-21T16:00:53.355Z,966.73
2019-05-21T16:01:53.371Z,966.66
2019-05-21T16:02:53.370Z,966.61
2019-05-21T16:03:53.353Z,966.61
2019-05-21T16:04:53.939Z,966.58
2019-05-21T16:05:53.356Z,966.56
2019-05-21T16:06:53.391Z,966.53
2019-05-21T16:07:53.369Z,966.52
2019-05-21T16:08:53.395Z,966.48
2019-05-21T16:09:53.384Z,966.52
2019-05-21T16:10:53.380Z,966.47
2019-05-21T16:11:53.415Z,966.55
2019-05-21T16:12:54.691Z,966.59
2019-05-21T16:13:53.405Z,966.58
2019-05-21T16:14:53.392Z,966.59
2019-05-21T16:15:53.395Z,966.54
2019-05-21T16:16:53.436Z,966.57
2019-05-21T16:17:53.463Z,966.56
2019-05-21T16:18:53.415Z,966.53
2019-05-21T16:19:53.416Z,966.51
2019-05-21T16:20:53.427Z,966.58
2019-05-21T16:21:53.430Z,966.55
2019-05-21T16:22:53.455Z,966.57
2019-05-21T16:23:53.433Z,966.56
2019-05-21T16:24:53.942Z,966.53
2019-05-21T16:25:53.439Z,966.51
2019-05-21T16:26:53.441Z,966.45
2019-05-21T16:27:53.469Z,966.43
2019-05-21T16:28:53.439Z,966.42
2019-05-21T16:29:53.450Z,966.55
2019-05-21T16:30:53.452Z,966.48
2019-05-21T16:31:53.499Z,966.46
2019-05-21T16:32:53.480Z,966.47
2019-05-21T16:33:53.463Z,966.46
2019-05-21T16:34:53.607Z,966.52
2019-05-21T16:35:53.475Z,966.52
2019-05-21T16:36:53.471Z,966.58
2019-05-21T16:37:53.510Z,966.64
2019-05-21T16:38:53.494Z,966.63
2019-05-21T16:39:53.529Z,966.59
2019-05-21T16:40:53.485Z,966.62
2019-05-21T16:41:53.485Z,966.71
2019-05-21T16:42:53.505Z,966.64
2019-05-21T16:43:53.501Z,966.69
2019-05-21T16:44:53.493Z,966.67
2019-05-21T16:45:53.521Z,966.68
2019-05-21T16:46:53.489Z,966.61
2019-05-21T16:47:53.527Z,966.70
2019-05-21T16:48:53.525Z,966.68
2019-05-21T16:49:53.502Z,966.61
2019-05-21T16:50:53.498Z,966.64
2019-05-21T16:51:53.504Z,966.64
2019-05-21T16:52:53.516Z,966.64
2019-05-21T16:53:53.539Z,966.69
2019-05-21T16:54:53.519Z,966.70
2019-05-21T16:55:53.564Z,966.71
2019-05-21T16:56:53.519Z,966.72
2019-05-21T16:57:56.083Z,966.74
2019-05-21T16:58:53.547Z,966.75
2019-05-21T16:59:53.528Z,966.77
2019-05-21T17:00:53.526Z,966.77
2019-05-21T17:01:53.554Z,966.81
2019-05-21T17:02:53.535Z,966.86
2019-05-21T17:03:59.785Z,966.87
2019-05-21T17:04:53.604Z,966.80
2019-05-21T17:05:53.535Z,966.78
2019-05-21T17:06:53.542Z,966.78
2019-05-21T17:07:53.545Z,966.82
2019-05-21T17:08:53.578Z,966.81
2019-05-21T17:09:53.550Z,966.80
2019-05-21T17:10:53.548Z,966.83
2019-05-21T17:12:00.125Z,966.90
2019-05-21T17:12:53.561Z,966.86
2019-05-21T17:13:53.584Z,966.95
2019-05-21T17:14:53.562Z,966.94
2019-05-21T17:15:53.570Z,966.91
2019-05-21T17:16:53.568Z,966.97
2019-05-21T17:17:53.648Z,966.93
2019-05-21T17:18:53.704Z,966.97
2019-05-21T17:19:53.575Z,966.98
2019-05-21T17:20:54.334Z,966.97
2019-05-21T17:21:54.376Z,966.98
2019-05-21T17:22:55.338Z,967.03
2019-05-21T17:23:57.346Z,967.04
2019-05-21T17:24:55.321Z,967.06
2019-05-21T17:25:56.818Z,967.11
2019-05-21T17:26:54.927Z,967.09
2019-05-21T17:27:56.833Z,967.06
2019-05-21T17:28:56.256Z,967.14
2019-05-21T17:30:00.686Z,967.09
2019-05-21T17:30:55.707Z,967.11
2019-05-21T17:31:53.595Z,967.08
2019-05-21T17:32:54.493Z,967.05
2019-05-21T17:33:57.352Z,967.10
2019-05-21T17:34:56.460Z,967.06
2019-05-21T17:35:54.691Z,967.03
2019-05-21T17:36:54.635Z,967.11
2019-05-21T17:38:15.823Z,967.12
2019-05-21T17:38:56.320Z,967.12
2019-05-21T17:40:01.332Z,967.14
2019-05-21T17:40:55.533Z,967.12
2019-05-21T17:42:17.853Z,967.10
2019-05-21T17:42:54.829Z,967.15
2019-05-21T17:43:54.464Z,967.17
2019-05-21T17:44:58.375Z,967.17
2019-05-21T17:45:55.880Z,967.22
2019-05-21T17:46:56.329Z,967.20
2019-05-21T17:47:55.785Z,967.27
2019-05-21T17:49:00.323Z,967.30
2019-05-21T17:49:54.584Z,967.28
2019-05-21T17:50:53.782Z,967.28
2019-05-21T17:51:55.868Z,967.30
2019-05-21T17:52:54.571Z,967.36
2019-05-21T17:53:55.640Z,967.40
2019-05-21T17:54:56.914Z,967.40
2019-05-21T17:55:55.552Z,967.39
2019-05-21T17:57:01.332Z,967.40
2019-05-21T17:57:53.752Z,967.35
2019-05-21T17:58:57.345Z,967.38
2019-05-21T18:00:02.834Z,967.42
2019-05-21T18:00:56.027Z,967.43
2019-05-21T18:01:56.553Z,967.42
2019-05-21T18:02:57.519Z,967.39
2019-05-21T18:03:57.389Z,967.39
2019-05-21T18:04:59.829Z,967.44
2019-05-21T18:05:58.862Z,967.47